createdAt,value
2023-03-21T00:00:43.402Z,6.87
2023-03-21T00:03:11.292Z,6.87
2023-03-21T00:05:42.364Z,6.89
2023-03-21T00:08:09.916Z,6.90
2023-03-21T00:10:42.067Z,6.93
2023-03-21T00:13:16.008Z,6.95
2023-03-21T00:16:06.115Z,6.96
2023-03-21T00:18:46.743Z,6.96
2023-03-21T00:24:05.495Z,6.96
2023-03-21T00:26:33.390Z,6.94
2023-03-21T00:29:00.776Z,6.95
2023-03-21T00:31:27.872Z,6.93
2023-03-21T00:33:54.904Z,6.94
2023-03-21T00:36:21.930Z,6.92
2023-03-21T00:38:48.970Z,6.93
2023-03-21T00:41:26.378Z,6.91
2023-03-21T00:44:04.302Z,6.92
2023-03-21T00:46:43.647Z,6.93
2023-03-21T00:49:14.217Z,6.93
2023-03-21T00:51:43.829Z,6.94
2023-03-21T00:54:12.610Z,6.91
2023-03-21T00:56:39.564Z,6.92
2023-03-21T00:59:06.722Z,6.92
2023-03-21T01:01:33.782Z,6.91
2023-03-21T01:04:07.588Z,6.92
2023-03-21T01:06:40.399Z,6.90
2023-03-21T01:09:19.619Z,6.89
2023-03-21T01:11:46.712Z,6.87
2023-03-21T01:14:23.073Z,6.88
2023-03-21T01:16:54.040Z,6.86
2023-03-21T01:19:35.241Z,6.86
2023-03-21T01:22:08.914Z,6.83
2023-03-21T01:24:43.433Z,6.83
2023-03-21T01:27:13.882Z,6.82
2023-03-21T01:29:40.802Z,6.82
2023-03-21T01:32:07.822Z,6.80
2023-03-21T01:34:34.780Z,6.82
2023-03-21T01:37:01.824Z,6.83
2023-03-21T01:39:28.865Z,6.81
2023-03-21T01:41:55.890Z,6.82
2023-03-21T01:44:22.832Z,6.84
2023-03-21T01:49:41.902Z,6.90
2023-03-21T01:52:23.561Z,6.90
2023-03-21T01:54:56.047Z,6.94
2023-03-21T01:57:43.499Z,6.97
2023-03-21T02:00:15.649Z,6.97
2023-03-21T02:02:52.228Z,6.98
2023-03-21T02:05:25.403Z,7.00
2023-03-21T02:07:53.264Z,7.00
2023-03-21T02:10:21.043Z,7.01
2023-03-21T02:12:48.450Z,7.04
2023-03-21T02:15:16.298Z,6.98
2023-03-21T02:17:53.951Z,7.02
2023-03-21T02:20:39.377Z,7.00
2023-03-21T02:23:24.164Z,6.97
2023-03-21T02:26:19.299Z,6.95
2023-03-21T02:29:22.053Z,6.93
2023-03-21T02:32:25.054Z,6.90
2023-03-21T02:35:14.242Z,6.88
2023-03-21T02:38:00.815Z,6.84
2023-03-21T02:40:43.038Z,6.83
2023-03-21T02:43:27.779Z,6.82
2023-03-21T02:46:15.085Z,6.81
2023-03-21T02:48:54.404Z,6.80
2023-03-21T02:51:24.403Z,6.79
2023-03-21T02:54:22.196Z,6.77
2023-03-21T02:56:47.346Z,6.77
2023-03-21T02:59:16.404Z,6.78
2023-03-21T03:01:43.798Z,6.78
2023-03-21T03:04:22.142Z,6.78
2023-03-21T03:07:24.733Z,6.79
2023-03-21T03:10:11.599Z,6.79
2023-03-21T03:12:53.959Z,6.79
2023-03-21T03:15:26.735Z,6.80
2023-03-21T03:18:08.953Z,6.82
2023-03-21T03:20:44.723Z,6.84
2023-03-21T03:23:28.019Z,6.85
2023-03-21T03:26:15.592Z,6.89
2023-03-21T03:28:47.729Z,6.92
2023-03-21T03:31:22.104Z,6.94
2023-03-21T03:33:52.432Z,6.99
2023-03-21T03:36:31.426Z,7.03
2023-03-21T03:39:04.645Z,7.10
2023-03-21T03:42:01.625Z,7.12
2023-03-21T03:44:24.301Z,7.17
2023-03-21T03:47:06.346Z,7.19
2023-03-21T03:49:39.939Z,7.22
2023-03-21T03:52:16.528Z,7.27
2023-03-21T03:54:45.561Z,7.30
2023-03-21T03:57:14.061Z,7.36
2023-03-21T03:59:43.861Z,7.39
2023-03-21T04:02:11.045Z,7.38
2023-03-21T04:04:38.669Z,7.44
2023-03-21T04:07:06.570Z,7.44
2023-03-21T04:09:43.492Z,7.49
2023-03-21T04:12:13.059Z,7.49
2023-03-21T04:14:45.750Z,7.51
2023-03-21T04:17:14.108Z,7.51
2023-03-21T04:19:41.054Z,7.57
2023-03-21T04:22:08.097Z,7.61
2023-03-21T04:24:37.677Z,7.68
2023-03-21T04:27:06.130Z,7.75
2023-03-21T04:29:33.628Z,7.82
2023-03-21T04:32:01.599Z,7.87
2023-03-21T04:34:29.233Z,7.93
2023-03-21T04:36:56.486Z,7.97
2023-03-21T04:39:24.825Z,7.97
2023-03-21T04:41:52.027Z,7.99
2023-03-21T04:44:19.231Z,8.02
2023-03-21T04:46:46.544Z,8.07
2023-03-21T04:49:13.548Z,8.10
2023-03-21T04:51:41.977Z,8.17
2023-03-21T04:54:11.718Z,8.21
2023-03-21T04:56:38.710Z,8.25
2023-03-21T04:59:16.845Z,8.27
2023-03-21T05:01:44.095Z,8.32
2023-03-21T05:04:14.135Z,8.35
2023-03-21T05:06:45.157Z,8.35
2023-03-21T05:09:12.540Z,8.38
2023-03-21T05:11:41.361Z,8.39
2023-03-21T05:14:11.634Z,8.34
2023-03-21T05:16:45.296Z,8.36
2023-03-21T05:19:14.554Z,8.36
2023-03-21T05:21:42.317Z,8.34
2023-03-21T05:24:13.444Z,8.42
2023-03-21T05:26:45.833Z,8.42
2023-03-21T05:29:13.564Z,8.45
2023-03-21T05:31:40.537Z,8.47
2023-03-21T05:34:07.522Z,8.44
2023-03-21T05:36:36.176Z,8.50
2023-03-21T05:39:04.007Z,8.54
2023-03-21T05:41:31.125Z,8.58
2023-03-21T05:43:58.164Z,8.63
2023-03-21T05:46:25.226Z,8.65
2023-03-21T05:48:52.535Z,8.65
2023-03-21T05:51:19.543Z,8.63
2023-03-21T05:53:46.736Z,8.59
2023-03-21T05:56:13.695Z,8.50
2023-03-21T05:58:40.658Z,8.48
2023-03-21T06:01:07.978Z,8.45
2023-03-21T06:03:35.278Z,8.39
2023-03-21T06:06:03.668Z,8.35
2023-03-21T06:08:32.119Z,8.29
2023-03-21T06:10:59.127Z,8.29
2023-03-21T06:13:26.178Z,8.30
2023-03-21T06:15:53.296Z,8.38
2023-03-21T06:18:20.371Z,8.46
2023-03-21T06:20:47.294Z,8.50
2023-03-21T06:23:14.296Z,8.60
2023-03-21T06:25:41.312Z,8.75
2023-03-21T06:28:08.351Z,8.86
2023-03-21T06:30:35.518Z,8.92
2023-03-21T06:33:02.808Z,8.99
2023-03-21T06:35:31.209Z,8.98
2023-03-21T06:38:01.670Z,9.00
2023-03-21T06:40:28.716Z,8.97
2023-03-21T06:42:55.730Z,8.91
2023-03-21T06:45:22.788Z,8.94
2023-03-21T06:47:49.822Z,8.99
2023-03-21T06:50:17.182Z,9.04
2023-03-21T06:52:44.122Z,9.07
2023-03-21T06:55:11.258Z,9.10
2023-03-21T06:57:39.681Z,9.12
2023-03-21T07:00:09.144Z,9.09
2023-03-21T07:02:36.288Z,9.12
2023-03-21T07:05:05.319Z,9.06
2023-03-21T07:07:32.404Z,9.09
2023-03-21T07:09:59.403Z,9.09
2023-03-21T07:12:26.435Z,9.12
2023-03-21T07:14:53.398Z,9.13
2023-03-21T07:17:20.642Z,9.14
2023-03-21T07:19:47.690Z,9.15
2023-03-21T07:22:14.698Z,9.14
2023-03-21T07:24:41.746Z,9.15
2023-03-21T07:27:08.818Z,9.17
2023-03-21T07:29:36.657Z,9.17
2023-03-21T07:32:04.110Z,9.26
2023-03-21T07:34:33.400Z,9.32
2023-03-21T07:37:01.068Z,9.37
2023-03-21T07:39:28.471Z,9.44
2023-03-21T07:41:55.956Z,9.46
2023-03-21T07:44:24.203Z,9.47
2023-03-21T07:46:51.372Z,9.45
2023-03-21T07:49:18.364Z,9.42
2023-03-21T07:51:45.549Z,9.37
2023-03-21T07:54:12.622Z,9.31
2023-03-21T07:56:39.677Z,9.26
2023-03-21T07:59:07.636Z,9.23
2023-03-21T08:01:35.292Z,9.27
2023-03-21T08:04:02.346Z,9.24
2023-03-21T08:06:29.522Z,9.25
2023-03-21T08:08:56.636Z,9.21
2023-03-21T08:11:24.910Z,9.17
2023-03-21T08:13:51.957Z,9.16
2023-03-21T08:16:19.058Z,9.19
2023-03-21T08:18:46.010Z,9.26
2023-03-21T08:21:12.953Z,9.35
2023-03-21T08:23:40.089Z,9.46
2023-03-21T08:26:08.038Z,9.55
2023-03-21T08:28:36.898Z,9.62
2023-03-21T08:31:11.298Z,9.68
2023-03-21T08:33:38.881Z,9.74
2023-03-21T08:36:06.657Z,9.73
2023-03-21T08:38:34.819Z,9.69
2023-03-21T08:41:01.958Z,9.76
2023-03-21T08:43:29.562Z,9.80
2023-03-21T08:45:57.240Z,9.80
2023-03-21T08:48:24.446Z,9.77
2023-03-21T08:50:51.627Z,9.73
2023-03-21T08:53:18.642Z,9.62
2023-03-21T08:55:46.044Z,9.53
2023-03-21T08:58:13.097Z,9.43
2023-03-21T09:00:40.220Z,9.32
2023-03-21T09:03:07.262Z,9.21
2023-03-21T09:05:34.499Z,9.12
2023-03-21T09:08:05.732Z,9.05
2023-03-21T09:10:33.253Z,8.95
2023-03-21T09:13:00.378Z,8.88
2023-03-21T09:15:29.061Z,8.83
2023-03-21T09:17:58.928Z,8.80
2023-03-21T09:20:31.460Z,8.92
2023-03-21T09:22:59.979Z,9.05
2023-03-21T09:25:35.268Z,9.17
2023-03-21T09:28:05.373Z,9.38
2023-03-21T09:30:34.743Z,9.57
2023-03-21T09:33:06.697Z,9.75
2023-03-21T09:35:33.760Z,9.90
2023-03-21T09:38:01.624Z,9.98
2023-03-21T09:41:13.132Z,9.99
2023-03-21T09:43:58.456Z,9.99
2023-03-21T09:47:04.166Z,9.99
2023-03-21T09:50:11.217Z,10.10
2023-03-21T09:52:48.202Z,10.24
2023-03-21T09:55:23.010Z,10.38
2023-03-21T09:58:13.990Z,10.55
2023-03-21T10:00:46.718Z,10.68
2023-03-21T10:03:24.642Z,10.68
2023-03-21T10:05:53.145Z,10.70
2023-03-21T10:08:27.361Z,10.71
2023-03-21T10:11:01.532Z,10.69
2023-03-21T10:13:34.352Z,10.66
2023-03-21T10:16:11.243Z,10.66
2023-03-21T10:18:39.875Z,10.71
2023-03-21T10:21:07.558Z,10.75
2023-03-21T10:23:35.408Z,10.77
2023-03-21T10:26:08.219Z,10.82
2023-03-21T10:28:52.460Z,10.82
2023-03-21T10:31:25.560Z,10.77
2023-03-21T10:33:56.250Z,10.67
2023-03-21T10:36:33.486Z,10.48
2023-03-21T10:39:07.396Z,10.37
2023-03-21T10:41:35.232Z,10.19
2023-03-21T10:44:12.057Z,10.03
2023-03-21T10:46:39.252Z,9.86
2023-03-21T10:49:08.639Z,9.81
2023-03-21T10:51:38.066Z,9.63
2023-03-21T10:54:08.985Z,9.72
2023-03-21T10:56:38.176Z,9.70
2023-03-21T10:59:09.215Z,9.70
2023-03-21T11:01:40.742Z,9.71
2023-03-21T11:04:18.636Z,9.71
2023-03-21T11:06:52.482Z,9.64
2023-03-21T11:09:22.222Z,9.56
2023-03-21T11:12:17.487Z,9.42
2023-03-21T11:14:51.192Z,9.35
2023-03-21T11:17:18.162Z,9.28
2023-03-21T11:19:50.539Z,9.22
2023-03-21T11:22:20.758Z,9.19
2023-03-21T11:24:52.641Z,9.10
2023-03-21T11:27:20.204Z,9.05
2023-03-21T11:29:51.325Z,8.99
2023-03-21T11:32:23.063Z,8.96
2023-03-21T11:35:05.689Z,8.93
2023-03-21T11:37:49.435Z,8.93
2023-03-21T11:40:26.731Z,8.97
2023-03-21T11:43:01.681Z,9.00
2023-03-21T11:45:36.115Z,9.00
2023-03-21T11:48:13.194Z,8.99
2023-03-21T11:50:43.909Z,8.96
2023-03-21T11:53:20.578Z,8.84
2023-03-21T11:55:50.488Z,8.82
2023-03-21T11:58:39.089Z,8.73
2023-03-21T12:01:10.818Z,8.62
2023-03-21T12:03:59.420Z,8.60
2023-03-21T12:06:34.404Z,8.54
2023-03-21T12:09:12.761Z,8.50
2023-03-21T12:11:52.698Z,8.40
2023-03-21T12:14:24.006Z,8.48
2023-03-21T12:17:06.207Z,8.49
2023-03-21T12:19:49.222Z,8.47
2023-03-21T12:22:33.038Z,8.48
2023-03-21T12:25:13.972Z,8.49
2023-03-21T12:27:55.406Z,8.44
2023-03-21T12:30:31.546Z,8.38
2023-03-21T12:33:27.115Z,8.27
2023-03-21T12:36:22.077Z,8.23
2023-03-21T12:39:09.340Z,8.21
2023-03-21T12:41:51.264Z,8.19
2023-03-21T12:44:22.681Z,8.17
2023-03-21T12:46:58.606Z,8.14
2023-03-21T12:49:39.870Z,8.15
2023-03-21T12:52:14.822Z,8.10
2023-03-21T12:54:47.619Z,8.04
2023-03-21T12:57:27.878Z,7.99
2023-03-21T13:00:03.239Z,7.93
2023-03-21T13:02:41.106Z,7.90
2023-03-21T13:05:18.619Z,7.82
2023-03-21T13:08:08.927Z,7.80
2023-03-21T13:10:37.715Z,7.78
2023-03-21T13:13:27.357Z,7.77
2023-03-21T13:16:20.715Z,7.71
2023-03-21T13:19:32.659Z,7.65
2023-03-21T13:22:16.377Z,7.67
2023-03-21T13:24:55.513Z,7.63
2023-03-21T13:27:30.280Z,7.61
2023-03-21T13:30:09.073Z,7.57
2023-03-21T13:32:40.798Z,7.53
2023-03-21T13:35:10.690Z,7.51
2023-03-21T13:37:46.707Z,7.44
2023-03-21T13:40:38.958Z,7.41
2023-03-21T13:43:27.566Z,7.39
2023-03-21T13:45:55.537Z,7.35
2023-03-21T13:48:32.023Z,7.37
2023-03-21T13:51:04.904Z,7.36
2023-03-21T13:53:40.231Z,7.33
2023-03-21T13:56:14.804Z,7.28
2023-03-21T13:58:44.862Z,7.30
2023-03-21T14:01:30.184Z,7.29
2023-03-21T14:04:10.046Z,7.27
2023-03-21T14:06:51.242Z,7.27
2023-03-21T14:09:38.157Z,7.24
2023-03-21T14:12:11.435Z,7.25
2023-03-21T14:14:44.043Z,7.23
2023-03-21T14:17:34.868Z,7.21
2023-03-21T14:20:13.519Z,7.14
2023-03-21T14:22:41.136Z,7.12
2023-03-21T14:25:15.855Z,7.09
2023-03-21T14:27:46.282Z,7.08
2023-03-21T14:30:23.253Z,7.03
2023-03-21T14:32:50.510Z,7.01
2023-03-21T14:35:24.268Z,6.94
2023-03-21T14:37:52.065Z,7.01
2023-03-21T14:40:25.949Z,7.00
2023-03-21T14:42:54.704Z,7.00
2023-03-21T14:45:23.404Z,6.99
2023-03-21T14:48:13.439Z,6.97
2023-03-21T14:50:46.797Z,6.97
2023-03-21T14:53:27.352Z,6.94
2023-03-21T14:56:09.369Z,6.92
2023-03-21T14:58:42.324Z,6.91
2023-03-21T15:01:16.507Z,6.89
2023-03-21T15:03:47.976Z,6.85
2023-03-21T15:06:15.203Z,6.84
2023-03-21T15:08:57.778Z,6.83
2023-03-21T15:11:36.873Z,6.82
2023-03-21T15:14:07.329Z,6.80
2023-03-21T15:16:35.681Z,6.79
2023-03-21T15:19:05.461Z,6.79
2023-03-21T15:21:38.419Z,6.79
2023-03-21T15:24:14.130Z,6.78
2023-03-21T15:26:46.316Z,6.77
2023-03-21T15:29:16.402Z,6.75
2023-03-21T15:31:44.395Z,6.78
2023-03-21T15:34:30.981Z,6.76
2023-03-21T15:37:05.306Z,6.78
2023-03-21T15:39:36.465Z,6.72
2023-03-21T15:42:07.663Z,6.70
2023-03-21T15:44:35.803Z,6.69
2023-03-21T15:47:03.005Z,6.66
2023-03-21T15:49:34.836Z,6.68
2023-03-21T15:52:05.959Z,6.66
2023-03-21T15:54:37.227Z,6.69
2023-03-21T15:57:20.075Z,6.68
2023-03-21T15:59:48.071Z,6.65
2023-03-21T16:02:23.366Z,6.64
2023-03-21T16:05:01.184Z,6.62
2023-03-21T16:07:34.603Z,6.61
2023-03-21T16:10:04.773Z,6.62
2023-03-21T16:12:31.964Z,6.57
2023-03-21T16:14:59.184Z,6.59
2023-03-21T16:17:37.907Z,6.55
2023-03-21T16:20:36.004Z,6.57
2023-03-21T16:23:03.633Z,6.56
2023-03-21T16:25:32.095Z,6.52
2023-03-21T16:27:59.793Z,6.55
2023-03-21T16:30:27.614Z,6.53
2023-03-21T16:32:54.746Z,6.52
2023-03-21T16:35:23.621Z,6.49
2023-03-21T16:37:51.036Z,6.47
2023-03-21T16:40:40.046Z,6.50
2023-03-21T16:43:08.065Z,6.44
2023-03-21T16:45:36.041Z,6.49
2023-03-21T16:48:03.998Z,6.47
2023-03-21T16:50:33.948Z,6.50
2023-03-21T16:53:02.118Z,6.48
2023-03-21T16:55:31.157Z,6.44
2023-03-21T16:57:58.179Z,6.39
2023-03-21T17:00:28.214Z,6.30
2023-03-21T17:02:56.854Z,6.21
2023-03-21T17:05:26.526Z,6.11
2023-03-21T17:07:54.797Z,6.06
2023-03-21T17:10:28.683Z,5.86
2023-03-21T17:12:55.767Z,6.00
2023-03-21T17:15:23.381Z,6.01
2023-03-21T17:17:50.528Z,5.98
2023-03-21T17:20:22.991Z,6.04
2023-03-21T17:22:55.711Z,6.02
2023-03-21T17:25:24.084Z,5.95
2023-03-21T17:27:53.287Z,5.86
2023-03-21T17:30:41.127Z,5.77
2023-03-21T17:33:08.794Z,5.65
2023-03-21T17:35:36.259Z,5.59
2023-03-21T17:38:04.678Z,5.56
2023-03-21T17:40:33.210Z,5.46
2023-03-21T17:43:01.809Z,5.41
2023-03-21T17:45:29.956Z,5.34
2023-03-21T17:47:57.387Z,5.36
2023-03-21T17:50:26.786Z,5.39
2023-03-21T17:52:56.759Z,5.42
2023-03-21T17:55:24.993Z,5.49
2023-03-21T17:57:53.162Z,5.54
2023-03-21T18:00:26.881Z,5.62
2023-03-21T18:02:54.561Z,5.65
2023-03-21T18:05:23.161Z,5.68
2023-03-21T18:08:09.893Z,5.69
2023-03-21T18:10:39.854Z,5.70
2023-03-21T18:13:07.249Z,5.65
2023-03-21T18:15:35.941Z,5.69
2023-03-21T18:18:05.391Z,5.73
2023-03-21T18:23:21.246Z,5.80
2023-03-21T18:25:49.160Z,5.80
2023-03-21T18:28:20.537Z,5.83
2023-03-21T18:33:40.802Z,5.92
2023-03-21T18:36:09.710Z,5.91
2023-03-21T18:38:37.296Z,5.94
2023-03-21T18:41:05.997Z,5.93
2023-03-21T18:46:20.916Z,5.91
2023-03-21T18:48:49.097Z,5.97
2023-03-21T18:51:17.840Z,5.98
2023-03-21T18:53:45.914Z,6.01
2023-03-21T18:56:46.882Z,6.04
2023-03-21T18:59:01.531Z,6.07
2023-03-21T19:01:29.109Z,6.13
2023-03-21T19:04:30.625Z,6.13
2023-03-21T19:06:48.531Z,6.11
2023-03-21T19:09:17.966Z,6.16
2023-03-21T19:11:46.008Z,6.12
2023-03-21T19:14:14.664Z,6.12
2023-03-21T19:17:11.406Z,6.00
2023-03-21T19:19:30.614Z,5.96
2023-03-21T19:21:57.991Z,5.94
2023-03-21T19:24:28.628Z,5.84
2023-03-21T19:26:56.217Z,5.77
2023-03-21T19:29:23.612Z,5.72
2023-03-21T19:31:51.529Z,5.72
2023-03-21T19:34:19.790Z,5.69
2023-03-21T19:36:51.426Z,5.65
2023-03-21T19:39:22.797Z,5.53
2023-03-21T19:41:58.795Z,5.57
2023-03-21T19:44:35.206Z,5.42
2023-03-21T19:47:02.351Z,5.53
2023-03-21T19:49:52.082Z,5.53
2023-03-21T19:52:17.332Z,5.54
2023-03-21T19:54:44.365Z,5.58
2023-03-21T19:57:11.534Z,5.67
2023-03-21T19:59:39.048Z,5.71
2023-03-21T20:02:31.077Z,5.75
2023-03-21T20:04:53.988Z,5.75
2023-03-21T20:07:21.397Z,5.76
2023-03-21T20:09:52.545Z,5.82
2023-03-21T20:12:22.145Z,5.87
2023-03-21T20:14:49.638Z,5.88
2023-03-21T20:17:18.803Z,5.96
2023-03-21T20:19:46.063Z,6.07
2023-03-21T20:22:24.673Z,6.10
2023-03-21T20:24:55.092Z,6.12
2023-03-21T20:27:25.491Z,6.18
2023-03-21T20:30:09.198Z,6.21
2023-03-21T20:32:41.796Z,6.21
2023-03-21T20:35:20.794Z,6.22
2023-03-21T20:37:54.497Z,6.26
2023-03-21T20:40:21.799Z,6.28
2023-03-21T20:42:50.336Z,6.29
2023-03-21T20:45:17.739Z,6.31
2023-03-21T20:47:45.164Z,6.33
2023-03-21T20:50:14.078Z,6.38
2023-03-21T20:53:06.880Z,6.36
2023-03-21T20:55:33.395Z,6.38
2023-03-21T20:58:02.242Z,6.41
2023-03-21T21:00:29.972Z,6.42
2023-03-21T21:02:58.283Z,6.32
2023-03-21T21:05:31.485Z,6.42
2023-03-21T21:08:01.504Z,6.39
2023-03-21T21:10:28.780Z,6.36
2023-03-21T21:12:55.913Z,6.32
2023-03-21T21:15:23.014Z,6.32
2023-03-21T21:18:08.346Z,6.32
2023-03-21T21:20:37.432Z,6.36
2023-03-21T21:23:05.318Z,6.32
2023-03-21T21:25:34.229Z,6.24
2023-03-21T21:28:02.090Z,6.24
2023-03-21T21:30:30.328Z,6.23
2023-03-21T21:32:59.772Z,6.23
2023-03-21T21:35:27.036Z,6.25
2023-03-21T21:37:54.116Z,6.21
2023-03-21T21:40:23.594Z,6.19
2023-03-21T21:42:50.964Z,6.14
2023-03-21T21:45:19.113Z,6.16
2023-03-21T21:47:46.736Z,6.15
2023-03-21T21:50:14.585Z,6.15
2023-03-21T21:52:43.905Z,6.20
2023-03-21T21:55:11.330Z,6.21
2023-03-21T21:57:39.957Z,6.25
2023-03-21T22:00:13.117Z,6.23
2023-03-21T22:02:41.215Z,6.31
2023-03-21T22:05:09.027Z,6.32
2023-03-21T22:07:37.692Z,6.36
2023-03-21T22:10:05.541Z,6.38
2023-03-21T22:12:32.659Z,6.41
2023-03-21T22:14:59.717Z,6.41
2023-03-21T22:17:26.706Z,6.38
2023-03-21T22:20:05.213Z,6.42
2023-03-21T22:22:34.662Z,6.38
2023-03-21T22:25:02.298Z,6.42
2023-03-21T22:27:30.823Z,6.41
2023-03-21T22:29:57.844Z,6.45
2023-03-21T22:32:24.869Z,6.49
2023-03-21T22:34:51.928Z,6.52
2023-03-21T22:37:18.910Z,6.50
2023-03-21T22:39:45.978Z,6.57
2023-03-21T22:42:13.052Z,6.59
2023-03-21T22:44:40.139Z,6.63
2023-03-21T22:47:09.676Z,6.65
2023-03-21T22:49:37.843Z,6.67
2023-03-21T22:52:06.341Z,6.71
2023-03-21T22:54:33.409Z,6.69
2023-03-21T22:57:00.592Z,6.75
2023-03-21T22:59:28.119Z,6.76
2023-03-21T23:01:55.468Z,6.79
2023-03-21T23:04:23.228Z,6.75
2023-03-21T23:06:50.497Z,6.78
2023-03-21T23:09:17.862Z,6.82
2023-03-21T23:11:49.076Z,6.83
2023-03-21T23:14:17.250Z,6.82
2023-03-21T23:16:45.180Z,6.74
2023-03-21T23:19:12.411Z,6.79
2023-03-21T23:21:40.622Z,6.80
2023-03-21T23:24:08.177Z,6.79
2023-03-21T23:26:35.498Z,6.81
2023-03-21T23:29:03.157Z,6.79
2023-03-21T23:31:33.151Z,6.78
2023-03-21T23:34:00.850Z,6.76
2023-03-21T23:36:28.124Z,6.69
2023-03-21T23:38:55.233Z,6.71
2023-03-21T23:41:24.032Z,6.67
2023-03-21T23:43:51.805Z,6.67
2023-03-21T23:46:19.763Z,6.65
2023-03-21T23:48:47.348Z,6.68
2023-03-21T23:51:16.786Z,6.71
2023-03-21T23:53:45.104Z,6.74
2023-03-21T23:56:18.002Z,6.74
2023-03-21T23:58:45.090Z,6.79
